Time;durP1;ratioP1;P1;durP2;ratioP2;P2;SDS_P1;SDS_P2;PMS_P1;PMS_P2;Temp;Humidity;BMP_temperature;BMP_pressure;BME280_temperature;BME280_humidity;BME280_pressure;Samples;Min_cycle;Max_cycle;Signal;HPM_P1;HPM_P2
2022/03/31 00:00:34;;;;;;;1.35;0.50;;;17.60;46.10;;;;;;4950628;28;93225;-65
2022/03/31 00:03:01;;;;;;;1.75;0.70;;;17.60;46.10;;;;;;4951544;28;92835;-65
2022/03/31 00:05:27;;;;;;;1.30;0.50;;;17.60;46.10;;;;;;4952598;28;93061;-66
2022/03/31 00:07:55;;;;;;;1.00;0.45;;;17.50;46.00;;;;;;4952304;28;93997;-65
2022/03/31 00:10:26;;;;;;;1.60;0.50;;;17.50;46.00;;;;;;4951257;28;92842;-65
2022/03/31 00:12:53;;;;;;;1.15;0.60;;;17.50;46.00;;;;;;4951137;28;92639;-66
2022/03/31 00:15:21;;;;;;;1.48;0.57;;;17.50;46.00;;;;;;4949509;28;97823;-70
2022/03/31 00:17:47;;;;;;;1.92;0.65;;;17.50;45.90;;;;;;4952238;28;95141;-66
2022/03/31 00:33:41;;;;;;;1.70;0.60;;;17.40;45.90;;;;;;4950760;28;92405;-65
2022/03/31 00:36:07;;;;;;;1.45;0.60;;;17.40;46.00;;;;;;4951931;28;91888;-64
2022/03/31 00:38:33;;;;;;;0.93;0.60;;;17.40;45.90;;;;;;4950895;28;94368;-65
2022/03/31 00:41:00;;;;;;;1.50;0.50;;;17.40;45.90;;;;;;4949973;28;93107;-65
2022/03/31 00:43:26;;;;;;;1.15;0.60;;;17.40;45.80;;;;;;4949093;28;96278;-66
2022/03/31 00:45:56;;;;;;;1.05;0.32;;;17.40;45.80;;;;;;4951206;28;92534;-67
2022/03/31 00:48:22;;;;;;;1.27;0.57;;;17.40;45.80;;;;;;4951556;28;94792;-65
2022/03/31 00:50:48;;;;;;;1.10;0.50;;;17.40;45.80;;;;;;4951601;28;92952;-65
2022/03/31 00:53:17;;;;;;;0.85;0.50;;;17.40;45.70;;;;;;4951507;28;92520;-65
2022/03/31 00:55:45;;;;;;;1.58;0.50;;;17.40;45.70;;;;;;4951273;28;93028;-66
2022/03/31 00:58:11;;;;;;;1.30;0.50;;;17.40;45.70;;;;;;4950374;28;94264;-68
2022/03/31 01:00:37;;;;;;;1.10;0.50;;;17.30;45.70;;;;;;4950844;28;93971;-65
2022/03/31 01:03:04;;;;;;;1.10;0.60;;;17.30;45.70;;;;;;4950929;28;92958;-65
2022/03/31 01:05:29;;;;;;;1.38;0.45;;;17.30;45.70;;;;;;4950029;28;92483;-65
2022/03/31 01:07:55;;;;;;;1.50;0.55;;;17.30;45.70;;;;;;4949009;28;95560;-65
2022/03/31 01:10:21;;;;;;;0.68;0.30;;;17.30;45.60;;;;;;4949753;28;95577;-65
2022/03/31 01:12:47;;;;;;;0.88;0.47;;;17.30;45.60;;;;;;4950641;28;93105;-65
2022/03/31 01:15:19;;;;;;;0.82;0.40;;;17.30;45.60;;;;;;4950599;28;92616;-65
2022/03/31 01:17:46;;;;;;;0.95;0.40;;;17.30;45.60;;;;;;4949520;28;94179;-66
2022/03/31 01:20:15;;;;;;;1.42;0.50;;;17.30;45.60;;;;;;4949409;28;93026;-65
2022/03/31 01:22:42;;;;;;;1.80;0.52;;;17.30;45.60;;;;;;4949786;28;92701;-65
2022/03/31 01:25:09;;;;;;;1.00;0.47;;;17.30;45.60;;;;;;4949480;28;92359;-65
2022/03/31 01:27:38;;;;;;;1.00;0.50;;;17.20;45.50;;;;;;4950344;28;94442;-65
2022/03/31 01:30:08;;;;;;;1.80;0.60;;;17.30;45.60;;;;;;4949610;28;93310;-67
2022/03/31 01:32:34;;;;;;;1.08;0.40;;;17.30;45.60;;;;;;4948826;28;95480;-64
2022/03/31 01:35:01;;;;;;;1.15;0.50;;;17.20;45.50;;;;;;4950347;28;92655;-65
2022/03/31 01:37:27;;;;;;;1.25;0.40;;;17.20;45.50;;;;;;4949243;28;94212;-65
2022/03/31 01:39:53;;;;;;;1.48;0.40;;;17.20;45.50;;;;;;4949933;28;94129;-65
2022/03/31 01:42:18;;;;;;;1.15;0.50;;;17.20;45.50;;;;;;4949363;28;93398;-65
2022/03/31 01:44:44;;;;;;;1.33;0.40;;;17.20;45.50;;;;;;4949502;28;93082;-67
2022/03/31 01:47:10;;;;;;;0.75;0.40;;;17.20;45.50;;;;;;4949827;28;93716;-64
2022/03/31 01:49:39;;;;;;;1.48;0.52;;;17.20;45.50;;;;;;4949961;28;94079;-64
2022/03/31 01:52:06;;;;;;;1.02;0.50;;;17.20;45.50;;;;;;4949273;28;92653;-65
2022/03/31 01:54:34;;;;;;;1.85;0.57;;;17.20;45.50;;;;;;4950282;28;92734;-65
2022/03/31 01:57:01;;;;;;;0.60;0.40;;;17.20;45.50;;;;;;4947972;28;96834;-65
2022/03/31 01:59:43;;;;;;;1.10;0.45;;;17.20;45.50;;;;;;4949995;28;96265;-63
2022/03/31 02:02:12;;;;;;;1.73;0.45;;;17.20;45.50;;;;;;4949952;28;92584;-62
2022/03/31 02:04:39;;;;;;;1.35;0.40;;;17.10;45.50;;;;;;4949932;28;92644;-63
2022/03/31 02:07:05;;;;;;;1.42;0.55;;;17.10;45.40;;;;;;4949873;28;94954;-62
2022/03/31 02:09:31;;;;;;;1.33;0.40;;;17.10;45.40;;;;;;4950106;28;94100;-63
2022/03/31 02:11:57;;;;;;;1.73;0.50;;;17.10;45.40;;;;;;4950192;28;93022;-63
2022/03/31 02:14:24;;;;;;;0.98;0.40;;;17.10;45.40;;;;;;4949668;28;92273;-63
2022/03/31 02:16:49;;;;;;;1.00;0.50;;;17.10;45.40;;;;;;4948925;28;95169;-63
2022/03/31 02:19:15;;;;;;;0.95;0.50;;;17.10;45.40;;;;;;4930593;28;93031;-63
2022/03/31 02:21:41;;;;;;;1.10;0.47;;;17.10;45.40;;;;;;4947820;28;95465;-63
2022/03/31 02:24:08;;;;;;;1.52;0.40;;;17.10;45.40;;;;;;4949943;28;92811;-64
2022/03/31 02:26:36;;;;;;;1.30;0.57;;;17.10;45.40;;;;;;4949388;28;94238;-64
2022/03/31 02:29:03;;;;;;;1.83;0.32;;;17.10;45.40;;;;;;4949471;28;94040;-63
2022/03/31 02:31:29;;;;;;;1.60;0.50;;;17.10;45.40;;;;;;4949024;28;93049;-63
2022/03/31 02:33:56;;;;;;;0.47;0.32;;;17.10;45.40;;;;;;4949212;28;92832;-63
2022/03/31 02:36:22;;;;;;;0.77;0.40;;;17.00;45.30;;;;;;4949491;28;93913;-62
2022/03/31 02:38:47;;;;;;;0.80;0.40;;;17.00;45.30;;;;;;4952880;28;92696;-63
2022/03/31 02:41:13;;;;;;;1.23;0.47;;;17.00;45.40;;;;;;4952307;28;92469;-63
2022/03/31 02:43:39;;;;;;;1.02;0.40;;;17.00;45.40;;;;;;4952626;28;93412;-63
2022/03/31 02:46:04;;;;;;;1.20;0.50;;;17.00;45.30;;;;;;4950133;28;96505;-65
2022/03/31 02:48:30;;;;;;;0.95;0.40;;;17.00;45.30;;;;;;4951447;28;95202;-63
2022/03/31 02:50:56;;;;;;;1.02;0.57;;;17.00;45.30;;;;;;4952580;28;92775;-63
2022/03/31 02:56:07;;;;;;;2.25;0.75;;;17.00;45.40;;;;;;4952306;28;92650;-68
2022/03/31 02:58:33;;;;;;;2.05;0.60;;;17.00;45.30;;;;;;4951964;28;100919;-65
2022/03/31 03:00:58;;;;;;;2.00;0.68;;;17.00;45.30;;;;;;4952723;28;92899;-65
2022/03/31 03:03:24;;;;;;;1.08;0.40;;;17.00;45.30;;;;;;4953106;28;92043;-64
2022/03/31 03:05:51;;;;;;;0.80;0.43;;;17.00;45.30;;;;;;4952109;28;95613;-67
2022/03/31 03:08:16;;;;;;;0.80;0.40;;;17.00;45.30;;;;;;4952158;28;93004;-67
2022/03/31 03:10:42;;;;;;;0.80;0.45;;;17.00;45.30;;;;;;4951315;28;101804;-63
2022/03/31 03:13:08;;;;;;;0.85;0.40;;;17.00;45.30;;;;;;4952535;28;92594;-65
2022/03/31 03:15:34;;;;;;;2.22;0.70;;;17.00;45.30;;;;;;4953451;28;93901;-65
2022/03/31 04:19:14;;;;;;;0.73;0.40;;;16.80;45.20;;;;;;4919668;22;97567;-64
2022/03/31 04:21:40;;;;;;;3.05;0.60;;;16.70;45.30;;;;;;4933117;28;92634;-64
2022/03/31 04:24:06;;;;;;;1.73;0.40;;;16.70;45.20;;;;;;4932184;28;92880;-64
2022/03/31 04:26:33;;;;;;;0.93;0.47;;;16.70;45.20;;;;;;4932173;28;94030;-64
2022/03/31 04:29:01;;;;;;;1.77;0.57;;;16.70;45.20;;;;;;4932262;28;93118;-64
2022/03/31 04:31:27;;;;;;;1.50;0.70;;;16.70;45.30;;;;;;4932311;28;92701;-64
2022/03/31 04:33:52;;;;;;;0.90;0.40;;;16.70;45.20;;;;;;4930495;28;96868;-64
2022/03/31 04:36:18;;;;;;;1.10;0.60;;;16.70;45.20;;;;;;4931364;28;107606;-64
2022/03/31 04:38:45;;;;;;;0.93;0.43;;;16.70;45.30;;;;;;4932268;28;92627;-64
2022/03/31 04:41:10;;;;;;;1.30;0.50;;;16.70;45.20;;;;;;4933051;28;92925;-65
2022/03/31 04:43:37;;;;;;;1.30;0.55;;;16.70;45.20;;;;;;4933087;28;92974;-64
2022/03/31 04:46:02;;;;;;;1.63;0.60;;;16.70;45.20;;;;;;4931878;28;100748;-64
2022/03/31 04:48:30;;;;;;;1.20;0.40;;;16.70;45.20;;;;;;4932496;28;93162;-64
2022/03/31 04:50:56;;;;;;;0.93;0.50;;;16.70;45.10;;;;;;4932541;28;92065;-64
2022/03/31 04:53:21;;;;;;;1.10;0.38;;;16.70;45.20;;;;;;4932516;28;93141;-65
2022/03/31 04:55:47;;;;;;;1.23;0.50;;;16.70;45.10;;;;;;4932201;28;93028;-64
2022/03/31 04:58:12;;;;;;;1.08;0.40;;;16.70;45.10;;;;;;4931007;28;94969;-64
2022/03/31 05:00:38;;;;;;;4.28;0.73;;;16.70;45.10;;;;;;4932214;28;93067;-64
2022/03/31 05:03:04;;;;;;;6.07;0.70;;;16.70;45.40;;;;;;4931398;28;93965;-64
2022/03/31 05:05:29;;;;;;;1.48;0.68;;;16.70;45.60;;;;;;4931166;28;94323;-64
2022/03/31 05:07:55;;;;;;;2.88;0.70;;;16.70;45.70;;;;;;4932801;28;92979;-64
2022/03/31 05:10:21;;;;;;;1.02;0.50;;;16.70;45.70;;;;;;4932953;28;92487;-65
2022/03/31 05:12:47;;;;;;;1.50;0.40;;;16.70;45.70;;;;;;4931994;28;94261;-64
2022/03/31 05:15:12;;;;;;;6.25;0.73;;;16.60;45.70;;;;;;4931563;28;93448;-64
2022/03/31 05:17:38;;;;;;;1.60;0.50;;;16.70;45.60;;;;;;4934955;28;92900;-63
2022/03/31 05:20:09;;;;;;;3.55;0.70;;;16.70;45.50;;;;;;4951489;28;92992;-64
2022/03/31 05:22:36;;;;;;;3.28;0.60;;;16.70;46.40;;;;;;4950104;28;95407;-64
2022/03/31 05:25:03;;;;;;;2.08;0.43;;;16.70;45.50;;;;;;4951842;28;96238;-65
2022/03/31 05:27:29;;;;;;;3.28;0.70;;;16.70;45.40;;;;;;4951977;28;93301;-65
2022/03/31 05:29:55;;;;;;;3.05;0.73;;;16.70;45.40;;;;;;4951239;28;92541;-65
2022/03/31 05:32:20;;;;;;;2.05;0.55;;;16.70;45.50;;;;;;4950375;28;99697;-65
2022/03/31 05:34:46;;;;;;;3.00;0.70;;;16.80;45.60;;;;;;4950932;28;110118;-65
2022/03/31 05:37:11;;;;;;;1.95;0.50;;;16.80;45.60;;;;;;4951697;28;93003;-65
2022/03/31 05:39:37;;;;;;;5.88;0.80;;;16.70;45.70;;;;;;4951901;28;92238;-65
2022/03/31 05:42:03;;;;;;;2.60;0.68;;;16.80;45.60;;;;;;4949910;28;93155;-64
2022/03/31 05:44:29;;;;;;;2.95;0.70;;;16.80;45.70;;;;;;4950182;28;94249;-69
2022/03/31 05:46:54;;;;;;;3.50;0.75;;;16.80;45.60;;;;;;4947942;28;95070;-64
2022/03/31 05:49:20;;;;;;;4.80;0.73;;;16.80;45.70;;;;;;4951421;28;92516;-65
2022/03/31 05:51:46;;;;;;;3.15;0.70;;;16.70;45.70;;;;;;4950256;28;92998;-68
2022/03/31 05:54:11;;;;;;;1.83;0.70;;;16.80;45.70;;;;;;4950310;28;93831;-64
2022/03/31 05:56:37;;;;;;;2.13;0.70;;;16.80;45.60;;;;;;4951429;28;92503;-65
2022/03/31 05:59:04;;;;;;;2.05;0.70;;;16.80;45.60;;;;;;4950831;28;92467;-65
2022/03/31 06:01:29;;;;;;;3.08;0.50;;;16.90;45.70;;;;;;4950446;28;93321;-65
2022/03/31 06:03:55;;;;;;;1.55;0.60;;;16.90;45.90;;;;;;4950445;28;93943;-64
2022/03/31 06:06:22;;;;;;;0.80;0.45;;;17.00;46.00;;;;;;4950955;28;92862;-64
2022/03/31 06:08:49;;;;;;;3.55;0.60;;;17.10;46.00;;;;;;4952113;28;92623;-64
2022/03/31 06:11:14;;;;;;;1.48;0.60;;;17.20;46.10;;;;;;4949929;28;95474;-64
2022/03/31 06:13:40;;;;;;;8.00;0.85;;;17.30;46.00;;;;;;4954467;28;96268;-64
2022/03/31 06:16:06;;;;;;;2.85;0.75;;;17.50;46.10;;;;;;4953977;28;92656;-64
2022/03/31 06:18:31;;;;;;;6.50;0.75;;;17.50;46.00;;;;;;4954032;28;92995;-64
2022/03/31 06:20:57;;;;;;;4.70;0.75;;;17.60;46.00;;;;;;4933628;28;94917;-63
2022/03/31 06:23:23;;;;;;;3.95;0.60;;;17.70;46.00;;;;;;4931972;28;93738;-64
2022/03/31 06:25:50;;;;;;;1.67;0.60;;;17.70;45.80;;;;;;4933299;28;92923;-64
2022/03/31 06:28:16;;;;;;;4.32;0.52;;;17.70;45.90;;;;;;4934216;28;92120;-63
2022/03/31 06:30:41;;;;;;;2.55;0.80;;;17.70;45.70;;;;;;4932762;28;94251;-64
2022/03/31 06:33:08;;;;;;;11.38;0.85;;;17.70;45.80;;;;;;4933242;28;93928;-64
2022/03/31 06:35:34;;;;;;;3.08;0.70;;;17.70;45.70;;;;;;4931879;28;96427;-64
2022/03/31 06:38:01;;;;;;;2.45;0.82;;;17.70;45.70;;;;;;4934030;28;93074;-67
2022/03/31 06:40:30;;;;;;;3.90;0.80;;;17.70;45.70;;;;;;4933217;28;94126;-64
2022/03/31 06:42:56;;;;;;;2.78;0.60;;;17.70;45.70;;;;;;4932584;28;92998;-64
2022/03/31 06:45:22;;;;;;;3.22;0.77;;;17.70;45.70;;;;;;4933140;28;95739;-64
2022/03/31 06:47:47;;;;;;;1.30;0.60;;;17.70;45.70;;;;;;4933807;28;92650;-63
2022/03/31 06:50:13;;;;;;;2.05;0.50;;;17.70;45.70;;;;;;4932519;28;94194;-63
2022/03/31 06:52:39;;;;;;;2.50;0.50;;;17.60;45.60;;;;;;4933791;28;93699;-64
2022/03/31 06:55:05;;;;;;;5.57;0.80;;;17.60;45.60;;;;;;4933310;28;93095;-65
2022/03/31 06:57:31;;;;;;;2.85;0.60;;;17.60;45.70;;;;;;4934018;28;92606;-64
2022/03/31 06:59:56;;;;;;;3.08;0.73;;;17.60;45.70;;;;;;4931505;28;96449;-63
2022/03/31 07:02:23;;;;;;;1.95;0.70;;;17.60;45.80;;;;;;4933158;28;99438;-63
2022/03/31 07:04:49;;;;;;;3.30;0.63;;;17.60;45.90;;;;;;4932903;28;92856;-63
2022/03/31 07:07:15;;;;;;;2.83;0.52;;;17.50;45.80;;;;;;4933492;28;97595;-64
2022/03/31 07:09:41;;;;;;;3.67;0.60;;;17.50;45.90;;;;;;4933096;28;94601;-63
2022/03/31 07:12:07;;;;;;;2.83;0.77;;;17.50;45.90;;;;;;4934069;28;93368;-63
2022/03/31 07:14:37;;;;;;;1.98;0.52;;;17.50;45.90;;;;;;4932783;28;93003;-64
2022/03/31 07:17:04;;;;;;;1.45;0.63;;;17.40;45.80;;;;;;4932345;28;92097;-63
2022/03/31 07:19:29;;;;;;;1.30;0.60;;;17.40;45.80;;;;;;4939217;28;94315;-64
2022/03/31 07:21:55;;;;;;;1.65;0.65;;;17.40;45.80;;;;;;4951384;28;92970;-64
2022/03/31 07:24:21;;;;;;;1.15;0.70;;;17.40;45.80;;;;;;4950357;28;95751;-64
2022/03/31 07:26:47;;;;;;;2.20;0.90;;;17.30;45.70;;;;;;4953279;28;92898;-64
2022/03/31 07:29:13;;;;;;;1.83;1.02;;;17.30;45.80;;;;;;4952593;28;94196;-64
2022/03/31 07:31:39;;;;;;;2.65;1.10;;;17.30;45.80;;;;;;4952254;28;98999;-63
2022/03/31 07:34:04;;;;;;;1.88;1.20;;;17.30;45.80;;;;;;4952464;28;92959;-64
2022/03/31 07:36:30;;;;;;;4.85;1.52;;;17.30;46.90;;;;;;4952269;28;95197;-64
2022/03/31 07:38:55;;;;;;;3.55;1.73;;;17.20;45.80;;;;;;4952099;28;93239;-64
2022/03/31 07:41:21;;;;;;;2.50;1.80;;;17.20;45.80;;;;;;4950754;28;108155;-64
2022/03/31 07:43:47;;;;;;;3.97;1.55;;;17.20;45.80;;;;;;4951459;28;93216;-64
2022/03/31 07:46:12;;;;;;;4.53;1.92;;;17.20;45.80;;;;;;4950713;28;93119;-68
2022/03/31 07:48:38;;;;;;;3.45;2.10;;;17.20;45.90;;;;;;4950163;28;96596;-64
2022/03/31 07:51:04;;;;;;;3.40;1.90;;;17.10;45.80;;;;;;4952585;28;95124;-64
2022/03/31 07:53:33;;;;;;;4.28;2.00;;;17.10;45.90;;;;;;4951758;28;92525;-65
2022/03/31 07:55:59;;;;;;;6.05;2.35;;;17.10;45.90;;;;;;4951316;28;92629;-63
2022/03/31 07:58:25;;;;;;;3.97;2.42;;;17.10;46.00;;;;;;4951838;28;93436;-64
2022/03/31 08:00:52;;;;;;;6.00;2.17;;;17.10;46.00;;;;;;4951132;28;94348;-64
2022/03/31 08:03:22;;;;;;;5.15;2.40;;;17.00;45.90;;;;;;4951760;28;92450;-63
2022/03/31 08:05:49;;;;;;;5.50;2.55;;;17.00;46.00;;;;;;4951201;28;91831;-64
2022/03/31 08:08:14;;;;;;;3.33;2.50;;;17.00;46.00;;;;;;4950612;28;94868;-64
2022/03/31 08:10:41;;;;;;;4.60;2.80;;;17.00;46.00;;;;;;4951806;28;93991;-65
2022/03/31 08:13:08;;;;;;;4.55;2.80;;;17.00;46.00;;;;;;4950124;28;95727;-64
2022/03/31 08:15:34;;;;;;;5.93;2.92;;;16.90;46.00;;;;;;4951250;28;93207;-64
2022/03/31 08:18:01;;;;;;;5.43;3.22;;;16.90;46.00;;;;;;4950650;28;94131;-63
2022/03/31 08:20:27;;;;;;;5.90;3.33;;;16.90;46.10;;;;;;4950307;28;93879;-64
2022/03/31 08:22:53;;;;;;;6.32;3.03;;;16.90;46.10;;;;;;4952015;28;92728;-64
2022/03/31 08:25:20;;;;;;;4.68;3.08;;;16.90;46.20;;;;;;4951393;28;94568;-65
2022/03/31 08:27:46;;;;;;;5.82;2.80;;;16.90;46.20;;;;;;4951606;28;94146;-64
2022/03/31 08:30:16;;;;;;;5.65;2.92;;;16.80;46.10;;;;;;4952066;28;94100;-64
2022/03/31 08:32:43;;;;;;;4.95;2.53;;;16.80;46.20;;;;;;4951998;28;92788;-64
2022/03/31 08:35:11;;;;;;;6.05;3.20;;;16.80;46.20;;;;;;4951544;28;92676;-63
2022/03/31 08:37:37;;;;;;;5.55;3.28;;;16.80;46.30;;;;;;4950422;28;96473;-63
2022/03/31 08:40:06;;;;;;;5.47;3.10;;;16.80;46.30;;;;;;4950872;28;95028;-64
2022/03/31 08:42:32;;;;;;;5.53;3.63;;;16.80;46.20;;;;;;4951527;28;93168;-64
2022/03/31 08:44:59;;;;;;;5.35;3.40;;;16.70;46.20;;;;;;4951345;28;92646;-64
2022/03/31 08:47:26;;;;;;;5.93;3.30;;;16.80;46.30;;;;;;4951048;28;93205;-64
2022/03/31 08:49:55;;;;;;;5.13;3.15;;;16.70;46.30;;;;;;4950143;28;93629;-63
2022/03/31 08:52:22;;;;;;;6.38;3.20;;;16.70;46.30;;;;;;4950718;28;92625;-63
2022/03/31 08:54:49;;;;;;;7.18;3.50;;;16.70;46.30;;;;;;4951741;28;92428;-63
2022/03/31 08:57:16;;;;;;;5.53;3.08;;;16.70;46.30;;;;;;4949736;28;94004;-65
2022/03/31 08:59:41;;;;;;;3.53;2.70;;;16.70;46.30;;;;;;4950658;28;93817;-64
2022/03/31 09:02:08;;;;;;;4.95;2.90;;;16.70;46.40;;;;;;4949601;28;95511;-64
2022/03/31 09:04:34;;;;;;;4.25;2.78;;;16.70;46.40;;;;;;4950419;28;92529;-64
2022/03/31 09:07:04;;;;;;;5.03;2.90;;;16.70;46.40;;;;;;4950916;28;100889;-63
2022/03/31 09:09:31;;;;;;;5.38;2.78;;;16.70;46.30;;;;;;4950666;28;93940;-63
2022/03/31 09:11:56;;;;;;;5.07;2.92;;;16.70;46.40;;;;;;4951072;28;92518;-63
2022/03/31 09:14:30;;;;;;;4.47;3.10;;;16.60;46.30;;;;;;4950839;28;92529;-64
2022/03/31 09:16:56;;;;;;;4.65;2.63;;;16.60;46.30;;;;;;4950338;28;94058;-63
2022/03/31 09:19:22;;;;;;;3.53;2.60;;;16.60;46.30;;;;;;4949746;28;93754;-64
2022/03/31 09:21:58;;;;;;;3.47;2.63;;;16.60;46.30;;;;;;4950430;28;93018;-63
2022/03/31 09:24:27;;;;;;;3.53;2.40;;;16.60;47.40;;;;;;4949875;28;92589;-63
2022/03/31 09:26:54;;;;;;;3.88;2.60;;;16.60;46.40;;;;;;4949042;28;95978;-63
2022/03/31 09:29:23;;;;;;;4.05;2.67;;;16.60;46.40;;;;;;4949289;28;96811;-63
2022/03/31 09:31:51;;;;;;;4.68;2.63;;;16.60;46.30;;;;;;4950798;28;93032;-63
2022/03/31 09:34:18;;;;;;;4.60;2.75;;;16.60;46.50;;;;;;4950492;28;92532;-64
2022/03/31 09:36:53;;;;;;;3.47;2.40;;;16.60;46.50;;;;;;4950545;28;93195;-64
2022/03/31 09:39:20;;;;;;;4.15;2.65;;;16.60;46.40;;;;;;4950603;28;94363;-64
2022/03/31 09:41:48;;;;;;;3.35;2.22;;;16.60;46.50;;;;;;4950933;28;92881;-64
2022/03/31 09:44:25;;;;;;;4.18;2.38;;;16.60;46.50;;;;;;4950423;28;92339;-64
2022/03/31 09:46:52;;;;;;;4.28;2.25;;;16.60;46.40;;;;;;4951069;28;94255;-64
2022/03/31 09:49:25;;;;;;;2.75;2.10;;;16.60;46.50;;;;;;4953081;28;94038;-65
2022/03/31 09:51:54;;;;;;;2.80;2.20;;;16.60;46.50;;;;;;4952831;28;95372;-64
2022/03/31 09:54:23;;;;;;;2.90;2.00;;;16.60;46.50;;;;;;4953758;28;92479;-64
2022/03/31 09:56:49;;;;;;;5.93;2.42;;;16.60;46.50;;;;;;4953172;28;94466;-64
2022/03/31 09:59:16;;;;;;;5.70;2.53;;;16.50;46.40;;;;;;4954082;28;93957;-64
2022/03/31 10:01:43;;;;;;;3.67;1.88;;;16.60;46.50;;;;;;4953689;28;92490;-64
2022/03/31 10:04:11;;;;;;;3.50;2.33;;;16.60;46.50;;;;;;4953979;28;92569;-64
2022/03/31 10:06:39;;;;;;;3.72;2.05;;;16.60;46.50;;;;;;4953470;28;94183;-63
2022/03/31 10:09:06;;;;;;;3.70;2.20;;;16.50;46.50;;;;;;4953629;28;93907;-63
2022/03/31 10:11:34;;;;;;;3.95;1.92;;;16.50;46.50;;;;;;4953697;28;93107;-64
2022/03/31 10:14:13;;;;;;;3.00;2.33;;;16.50;46.50;;;;;;4953999;28;92830;-64
2022/03/31 10:16:50;;;;;;;4.43;2.35;;;16.50;46.50;;;;;;4952088;28;94936;-64
2022/03/31 10:19:35;;;;;;;2.85;2.00;;;16.50;46.50;;;;;;4952129;28;96421;-64
2022/03/31 10:24:41;;;;;;;2.60;1.80;;;16.50;46.50;;;;;;4952908;28;92570;-63
2022/03/31 10:25:16;;;;;;;2.97;1.95;;;16.50;46.50;;;;;;4952742;28;94052;-64
2022/03/31 10:27:49;;;;;;;3.03;2.00;;;16.50;46.50;;;;;;4953142;28;93003;-64
2022/03/31 10:30:23;;;;;;;2.17;1.50;;;16.50;46.50;;;;;;4952562;28;94064;-63
2022/03/31 10:32:57;;;;;;;3.60;1.80;;;16.50;46.50;;;;;;4953187;28;92625;-63
2022/03/31 10:35:33;;;;;;;2.88;1.60;;;16.50;46.60;;;;;;4953308;28;91870;-64
2022/03/31 10:38:14;;;;;;;2.38;1.80;;;16.50;46.50;;;;;;4952560;28;93118;-63
2022/03/31 10:40:42;;;;;;;2.17;1.60;;;16.50;46.60;;;;;;4953009;28;93850;-63
2022/03/31 10:43:29;;;;;;;3.47;1.80;;;16.50;46.60;;;;;;4952685;28;95310;-64
2022/03/31 10:45:57;;;;;;;2.42;1.52;;;16.40;46.60;;;;;;4954116;28;92720;-63
2022/03/31 10:48:25;;;;;;;1.73;1.40;;;16.40;46.60;;;;;;4953196;28;94487;-64
2022/03/31 10:51:03;;;;;;;1.70;1.40;;;16.40;46.60;;;;;;4952667;28;92926;-64
2022/03/31 10:53:30;;;;;;;3.00;1.70;;;16.40;46.60;;;;;;4952349;28;92567;-64
2022/03/31 10:55:57;;;;;;;1.98;1.30;;;16.40;46.60;;;;;;4952586;28;92802;-63
2022/03/31 10:58:30;;;;;;;3.17;1.70;;;16.40;46.60;;;;;;4951809;28;95415;-64
2022/03/31 11:01:00;;;;;;;2.30;1.50;;;16.40;46.60;;;;;;4952357;28;94031;-64
2022/03/31 11:03:26;;;;;;;2.35;1.50;;;16.40;46.60;;;;;;4953474;28;92595;-64
2022/03/31 11:05:56;;;;;;;1.80;1.40;;;16.40;46.60;;;;;;4952586;28;92811;-64
2022/03/31 11:08:21;;;;;;;1.70;1.33;;;16.40;46.60;;;;;;4951287;28;96990;-64
2022/03/31 11:10:53;;;;;;;2.50;1.50;;;16.40;46.60;;;;;;4951864;28;105652;-64
2022/03/31 11:13:29;;;;;;;1.35;1.20;;;16.40;46.50;;;;;;4952119;28;92492;-64
2022/03/31 11:15:56;;;;;;;2.45;1.65;;;16.40;46.60;;;;;;4951929;28;92850;-65
2022/03/31 11:18:22;;;;;;;1.63;1.23;;;16.40;46.60;;;;;;4952466;28;93231;-64
2022/03/31 11:20:58;;;;;;;1.50;1.30;;;16.40;46.60;;;;;;4952031;28;93800;-64
2022/03/31 11:23:25;;;;;;;2.45;1.60;;;16.40;46.60;;;;;;4953065;28;92548;-64
2022/03/31 11:25:51;;;;;;;1.30;1.13;;;16.40;46.60;;;;;;4953254;28;92266;-65
2022/03/31 11:28:17;;;;;;;1.42;1.20;;;16.40;46.60;;;;;;4952985;28;94086;-64
2022/03/31 11:30:43;;;;;;;2.13;1.40;;;16.40;46.60;;;;;;4952340;28;93696;-64
2022/03/31 11:33:10;;;;;;;1.67;1.30;;;16.40;46.60;;;;;;4951411;28;94859;-64
2022/03/31 11:35:36;;;;;;;1.30;1.20;;;16.40;46.60;;;;;;4952364;28;92754;-64
2022/03/31 11:38:05;;;;;;;1.77;1.25;;;16.40;46.60;;;;;;4952805;28;94554;-64
2022/03/31 11:40:44;;;;;;;1.70;1.20;;;16.40;47.00;;;;;;4952334;28;92947;-64
2022/03/31 11:43:12;;;;;;;1.52;1.10;;;16.40;46.60;;;;;;4951520;28;92817;-64
2022/03/31 11:45:46;;;;;;;1.67;1.10;;;16.40;46.60;;;;;;4952534;28;92647;-64
2022/03/31 11:48:14;;;;;;;2.60;1.25;;;16.40;46.60;;;;;;4951640;28;94162;-64
2022/03/31 11:50:53;;;;;;;1.60;1.40;;;16.40;46.60;;;;;;4951545;28;93867;-65
2022/03/31 11:53:24;;;;;;;2.15;1.38;;;16.40;46.60;;;;;;4951811;28;92961;-64
2022/03/31 11:55:56;;;;;;;1.77;1.20;;;16.40;46.60;;;;;;4951525;28;92970;-67
2022/03/31 11:58:23;;;;;;;1.63;1.20;;;16.40;46.60;;;;;;4950606;28;96852;-65
2022/03/31 12:00:50;;;;;;;2.00;1.23;;;16.40;46.60;;;;;;4951799;28;95694;-64
2022/03/31 12:03:17;;;;;;;2.80;1.45;;;16.40;46.60;;;;;;4952053;28;92949;-64
2022/03/31 12:05:59;;;;;;;1.20;1.10;;;16.40;46.50;;;;;;4952115;28;94415;-64
2022/03/31 12:08:26;;;;;;;3.30;1.33;;;16.40;46.50;;;;;;4951018;28;94136;-64
2022/03/31 12:10:53;;;;;;;3.67;1.55;;;16.40;46.50;;;;;;4951177;28;93875;-63
2022/03/31 12:13:20;;;;;;;1.63;1.17;;;16.50;46.50;;;;;;4950920;28;92908;-64
2022/03/31 12:15:46;;;;;;;1.95;1.40;;;16.40;46.50;;;;;;4952097;28;92143;-67
2022/03/31 12:18:16;;;;;;;1.73;1.30;;;16.50;46.50;;;;;;4951345;28;93049;-64
2022/03/31 12:20:41;;;;;;;2.33;1.40;;;16.50;46.50;;;;;;4951435;28;93729;-64
2022/03/31 12:23:22;;;;;;;1.98;1.30;;;16.40;46.40;;;;;;4950256;28;95154;-65
2022/03/31 12:25:48;;;;;;;1.98;1.23;;;16.50;46.50;;;;;;4951013;28;92765;-64
2022/03/31 12:28:17;;;;;;;2.28;1.42;;;16.40;46.50;;;;;;4951039;28;94289;-64
2022/03/31 12:30:42;;;;;;;1.83;1.15;;;16.40;46.40;;;;;;4950649;28;93883;-64
2022/03/31 12:33:20;;;;;;;1.42;1.10;;;16.40;46.40;;;;;;4951739;28;92882;-66
2022/03/31 12:36:04;;;;;;;1.35;1.08;;;16.50;46.40;;;;;;4950900;28;93325;-64
2022/03/31 12:38:34;;;;;;;2.08;1.17;;;16.40;46.40;;;;;;4950319;28;94301;-64
2022/03/31 12:41:00;;;;;;;1.45;1.13;;;16.40;46.50;;;;;;4951551;28;93799;-64
2022/03/31 12:43:26;;;;;;;1.65;1.00;;;16.40;46.50;;;;;;4951706;28;92558;-64
2022/03/31 12:45:53;;;;;;;2.05;1.27;;;16.40;46.50;;;;;;4952042;28;92539;-64
2022/03/31 12:48:19;;;;;;;1.15;0.93;;;16.40;46.50;;;;;;4949063;28;96542;-64
2022/03/31 12:50:46;;;;;;;1.65;1.23;;;16.40;46.50;;;;;;4950889;28;96323;-64
2022/03/31 12:53:12;;;;;;;1.40;1.20;;;16.40;46.40;;;;;;4950618;28;92444;-64
2022/03/31 12:55:43;;;;;;;1.30;1.20;;;16.40;46.50;;;;;;4950882;28;92882;-64
2022/03/31 12:58:09;;;;;;;1.73;1.20;;;16.40;46.40;;;;;;4950096;28;94536;-64
2022/03/31 13:00:36;;;;;;;1.30;1.10;;;16.40;46.50;;;;;;4949535;28;93855;-64
2022/03/31 13:03:02;;;;;;;1.95;1.17;;;16.40;46.40;;;;;;4951470;28;93465;-64
2022/03/31 13:05:29;;;;;;;1.40;1.15;;;16.40;46.50;;;;;;4951162;28;92476;-64
2022/03/31 13:07:56;;;;;;;1.73;1.20;;;16.40;46.50;;;;;;4950840;28;93307;-64
2022/03/31 13:10:24;;;;;;;1.30;1.20;;;16.40;46.50;;;;;;4950461;28;93869;-64
2022/03/31 13:12:50;;;;;;;1.50;1.20;;;16.40;46.40;;;;;;4949056;28;95384;-64
2022/03/31 13:15:17;;;;;;;1.35;1.08;;;16.40;46.40;;;;;;4950546;28;92770;-63
2022/03/31 13:17:45;;;;;;;1.17;1.00;;;16.30;46.30;;;;;;4950116;28;94310;-64
2022/03/31 13:20:12;;;;;;;1.35;1.00;;;16.30;46.40;;;;;;4948952;28;94135;-64
2022/03/31 13:22:38;;;;;;;1.20;1.00;;;16.30;46.30;;;;;;4949450;28;92582;-64
2022/03/31 13:25:06;;;;;;;1.13;0.95;;;16.30;46.30;;;;;;4950307;28;92700;-64
2022/03/31 13:27:33;;;;;;;1.55;1.23;;;16.30;46.30;;;;;;4950893;28;94135;-64
2022/03/31 13:29:59;;;;;;;1.00;0.90;;;16.30;46.30;;;;;;4950726;28;93920;-64
2022/03/31 13:32:25;;;;;;;1.65;1.23;;;16.30;46.30;;;;;;4950224;28;93034;-64
2022/03/31 13:34:51;;;;;;;1.40;1.30;;;16.30;46.30;;;;;;4950263;28;92576;-64
2022/03/31 13:37:21;;;;;;;1.15;0.90;;;16.30;46.30;;;;;;4949488;28;95906;-64
2022/03/31 13:39:48;;;;;;;1.23;0.85;;;16.30;46.30;;;;;;4950290;28;96132;-64
2022/03/31 13:42:13;;;;;;;1.40;1.08;;;16.30;46.30;;;;;;4950455;28;92501;-64
2022/03/31 13:44:40;;;;;;;1.23;1.05;;;16.20;46.20;;;;;;4950735;28;93121;-64
2022/03/31 13:47:07;;;;;;;1.85;1.35;;;16.20;46.20;;;;;;4950250;28;95817;-64
2022/03/31 13:49:33;;;;;;;2.20;1.52;;;16.20;46.20;;;;;;4950321;28;96113;-64
2022/03/31 13:51:59;;;;;;;2.03;1.70;;;16.20;46.20;;;;;;4950977;28;92492;-64
2022/03/31 13:54:26;;;;;;;2.65;1.20;;;16.20;46.20;;;;;;4951395;28;92039;-64
2022/03/31 13:56:54;;;;;;;2.45;1.70;;;16.20;46.20;;;;;;4950082;28;94287;-64
2022/03/31 14:02:08;;;;;;;1.70;1.60;;;16.20;46.20;;;;;;4949086;28;95365;-64
2022/03/31 14:04:35;;;;;;;2.30;1.40;;;16.20;46.10;;;;;;4948840;28;92640;-64
2022/03/31 14:07:03;;;;;;;2.05;1.58;;;16.20;46.00;;;;;;4949490;28;94146;-64